Matrincha, Brazil
Current Conditions -  °F | °C
As of 7:00 PM on Monday 20 Oct 2014 (Local Time) from SBAN Reporting Station
Few Clouds Few Clouds  
Wind Chill: 77°   Ceiling: Unl
Heat Index: 79°   Visibility: 6mi
Dew Point: 57°   Wind: 8mph
Humidity: 50%   Direction: 200°SSW
Pressure: 30.03"   Gusts: NA
Location:  15.44°S, 50.75°W
Report Text: SBAN 202200Z 20007KT 9000 FEW035 25/14 Q1017
Loading
Personal Weather Stations






























Interactive Weather Map
Tropical Storm Tracking
New forecast layout! Learn more

10-Day Weather Forecast

Advertisements
Track Severe Weather on mobile